Time;durP1;ratioP1;P1;durP2;ratioP2;P2;SDS_P1;SDS_P2;PMS_P1;PMS_P2;Temp;Humidity;BMP_temperature;BMP_pressure;BME280_temperature;BME280_humidity;BME280_pressure;Samples;Min_cycle;Max_cycle;Signal;HPM_P1;HPM_P2
2022/09/22 00:01:17;;;;;;;4.83;4.13;;;11.00;45.80;;;;;;20859;6741;117178;-75
2022/09/22 00:03:51;;;;;;;3.90;3.60;;;10.70;46.10;;;;;;20798;6741;117022;-75
2022/09/22 00:06:28;;;;;;;4.60;4.30;;;10.50;46.30;;;;;;20646;6741;306617;-75
2022/09/22 00:09:05;;;;;;;4.13;3.83;;;10.70;47.20;;;;;;20827;6741;120834;-75
2022/09/22 00:11:41;;;;;;;4.60;4.20;;;10.60;46.70;;;;;;20607;6741;343567;-75
2022/09/22 00:14:19;;;;;;;4.67;4.07;;;10.80;46.80;;;;;;20870;6741;117094;-75
2022/09/22 00:16:56;;;;;;;4.07;3.77;;;10.40;47.00;;;;;;20867;6741;117192;-75
2022/09/22 00:19:32;;;;;;;4.17;3.77;;;10.40;47.00;;;;;;20881;6741;117019;-74
2022/09/22 00:22:08;;;;;;;4.37;4.07;;;10.20;47.20;;;;;;20565;6741;284300;-75
2022/09/22 00:24:44;;;;;;;4.27;4.07;;;10.40;47.60;;;;;;20853;6741;120014;-74
2022/09/22 00:27:19;;;;;;;3.60;3.30;;;10.40;47.30;;;;;;20874;6741;117164;-75
2022/09/22 00:29:55;;;;;;;4.43;4.12;;;10.40;47.50;;;;;;20663;6741;336593;-75
2022/09/22 00:32:31;;;;;;;4.30;3.90;;;10.40;47.50;;;;;;20725;6741;117903;-75
2022/09/22 00:35:07;;;;;;;4.57;4.20;;;10.40;47.30;;;;;;20661;6741;328567;-75
2022/09/22 00:37:42;;;;;;;4.70;4.30;;;10.60;47.10;;;;;;20661;6741;336002;-75
2022/09/22 00:40:18;;;;;;;4.30;4.00;;;10.90;46.60;;;;;;20881;6741;117581;-77
2022/09/22 00:42:53;;;;;;;4.65;4.28;;;10.70;46.30;;;;;;20502;6741;308769;-75
2022/09/22 00:45:30;;;;;;;3.30;3.17;;;10.60;46.70;;;;;;20850;6797;117159;-75
2022/09/22 00:48:06;;;;;;;4.13;3.90;;;10.60;46.70;;;;;;20880;6741;117578;-74
2022/09/22 00:50:42;;;;;;;4.45;4.15;;;10.30;47.10;;;;;;20639;6741;335801;-75
2022/09/22 00:53:18;;;;;;;3.70;3.40;;;10.30;46.90;;;;;;20672;6741;117506;-74
2022/09/22 00:55:54;;;;;;;4.00;3.80;;;10.30;46.90;;;;;;20877;6741;121735;-75
2022/09/22 00:58:29;;;;;;;3.80;3.50;;;10.00;47.10;;;;;;20855;6741;117518;-75
2022/09/22 01:01:08;;;;;;;4.07;3.77;;;9.80;48.40;;;;;;20878;6741;117365;-75
2022/09/22 01:03:41;;;;;;;4.55;4.25;;;9.60;48.80;;;;;;20663;6740;310463;-75
2022/09/22 01:06:16;;;;;;;4.20;3.90;;;9.90;48.80;;;;;;20650;6741;277780;-75
2022/09/22 01:08:52;;;;;;;3.83;3.63;;;10.30;47.40;;;;;;20659;6740;277208;-75
2022/09/22 01:11:28;;;;;;;3.50;3.20;;;10.60;46.70;;;;;;20852;6741;117003;-75
2022/09/22 01:14:06;;;;;;;3.57;3.30;;;10.50;46.60;;;;;;20885;6741;117951;-74
2022/09/22 01:16:51;;;;;;;4.50;4.10;;;10.10;47.00;;;;;;20852;6741;119241;-75
2022/09/22 01:19:50;;;;;;;3.87;3.60;;;9.90;48.50;;;;;;20878;6741;117590;-75
2022/09/22 01:23:05;;;;;;;4.40;4.10;;;9.60;48.80;;;;;;20515;6741;303789;-75
2022/09/22 01:26:02;;;;;;;4.40;4.10;;;9.80;48.30;;;;;;20873;6741;116897;-75
2022/09/22 01:29:17;;;;;;;3.87;3.57;;;9.80;48.20;;;;;;20850;6741;116869;-75
2022/09/22 01:31:55;;;;;;;3.90;3.70;;;9.50;48.70;;;;;;20799;6741;118124;-75
2022/09/22 01:34:39;;;;;;;4.22;3.83;;;9.30;49.00;;;;;;20651;6741;278706;-75
2022/09/22 01:37:24;;;;;;;4.40;4.10;;;9.50;49.90;;;;;;20662;6741;307017;-75
2022/09/22 01:40:01;;;;;;;4.50;4.20;;;10.00;48.30;;;;;;20662;6741;280866;-74
2022/09/22 01:42:35;;;;;;;3.93;3.70;;;10.40;47.70;;;;;;20715;6741;117545;-75
2022/09/22 01:45:14;;;;;;;4.20;3.90;;;10.30;47.50;;;;;;20657;6741;301241;-75
2022/09/22 01:47:51;;;;;;;4.18;3.97;;;10.40;47.60;;;;;;20656;6741;336267;-75
2022/09/22 01:50:36;;;;;;;4.10;3.80;;;11.00;47.00;;;;;;20627;6741;298895;-75
2022/09/22 01:53:13;;;;;;;4.07;3.87;;;11.20;46.30;;;;;;20460;6741;310148;-74
2022/09/22 01:55:48;;;;;;;3.73;3.53;;;11.20;46.30;;;;;;20872;6741;119274;-74
2022/09/22 01:58:30;;;;;;;3.93;3.63;;;11.00;46.40;;;;;;20635;6741;306428;-75
2022/09/22 02:01:06;;;;;;;3.40;3.20;;;11.00;46.90;;;;;;20869;6741;118238;-74
2022/09/22 02:03:57;;;;;;;3.50;3.30;;;10.80;47.00;;;;;;20866;6741;123100;-74
2022/09/22 02:06:36;;;;;;;3.50;3.30;;;10.50;47.40;;;;;;20862;6741;117591;-74
2022/09/22 02:09:12;;;;;;;3.47;3.27;;;10.20;47.90;;;;;;20880;6741;118189;-74
2022/09/22 02:11:48;;;;;;;3.67;3.47;;;10.00;48.10;;;;;;20606;6741;309055;-74
2022/09/22 02:14:23;;;;;;;3.67;3.47;;;10.20;48.10;;;;;;20607;6755;278960;-74
2022/09/22 02:16:59;;;;;;;3.37;3.20;;;10.60;47.40;;;;;;20877;6741;117196;-73
2022/09/22 02:19:38;;;;;;;3.80;3.50;;;10.50;47.10;;;;;;20591;6758;306953;-74
2022/09/22 02:22:14;;;;;;;3.97;3.77;;;10.90;47.10;;;;;;20549;6756;295425;-74
2022/09/22 02:24:49;;;;;;;3.30;3.10;;;10.90;47.10;;;;;;20856;6755;117039;-74
2022/09/22 02:27:25;;;;;;;3.37;3.07;;;10.70;47.10;;;;;;20825;6756;121199;-74
2022/09/22 02:30:02;;;;;;;3.40;3.20;;;10.40;47.40;;;;;;20818;6758;117096;-74
2022/09/22 02:32:39;;;;;;;3.80;3.50;;;10.10;47.60;;;;;;20503;6756;436031;-73
2022/09/22 02:35:14;;;;;;;3.43;3.13;;;10.30;47.50;;;;;;20880;6756;117531;-74
2022/09/22 02:38:06;;;;;;;3.57;3.27;;;10.10;47.10;;;;;;20810;6756;117281;-74
2022/09/22 02:40:59;;;;;;;3.73;2.80;;;9.90;48.50;;;;;;20848;6756;117815;-74
2022/09/22 02:43:44;;;;;;;3.17;2.90;;;9.40;49.10;;;;;;20607;6827;117837;-74
2022/09/22 02:46:24;;;;;;;3.30;3.10;;;9.40;49.10;;;;;;20795;6756;120739;-74
2022/09/22 02:48:58;;;;;;;4.00;3.70;;;9.30;49.40;;;;;;20600;6756;277135;-74
2022/09/22 02:51:34;;;;;;;4.60;3.67;;;9.50;48.90;;;;;;20774;6756;120770;-74
2022/09/22 02:54:13;;;;;;;4.27;3.90;;;9.70;48.00;;;;;;20613;6756;277736;-74
2022/09/22 02:56:46;;;;;;;3.70;3.50;;;9.70;48.00;;;;;;20593;6758;278261;-74
2022/09/22 02:59:21;;;;;;;3.70;3.50;;;10.00;46.60;;;;;;20658;6756;307428;-74
2022/09/22 03:01:57;;;;;;;3.83;3.40;;;10.30;46.30;;;;;;20737;6756;117070;-74
2022/09/22 03:04:33;;;;;;;4.10;3.80;;;10.10;46.40;;;;;;20586;6756;336679;-74
2022/09/22 03:18:09;;;;;;;3.70;3.50;;;10.60;45.10;;;;;;21086;6522;71355;-73
2022/09/22 03:20:35;;;;;;;4.40;4.05;;;10.30;45.50;;;;;;20817;6802;117072;-72
2022/09/22 03:23:00;;;;;;;3.77;3.47;;;9.90;47.20;;;;;;20623;6827;118807;-72
2022/09/22 03:25:26;;;;;;;4.10;3.83;;;9.50;47.70;;;;;;20614;6869;117572;-74
2022/09/22 03:27:52;;;;;;;4.37;4.07;;;9.30;48.20;;;;;;20481;6854;282610;-77
2022/09/22 03:30:17;;;;;;;4.50;4.20;;;9.40;48.30;;;;;;20685;6854;117820;-73
2022/09/22 03:32:43;;;;;;;4.57;4.20;;;9.30;48.20;;;;;;20458;6845;337311;-73
2022/09/22 03:35:08;;;;;;;4.20;3.90;;;9.50;48.10;;;;;;20449;6860;342788;-74
2022/09/22 03:37:34;;;;;;;4.20;4.00;;;9.80;47.50;;;;;;20649;6845;117926;-73
2022/09/22 03:39:59;;;;;;;4.10;3.80;;;9.70;47.50;;;;;;20620;6879;117295;-73
2022/09/22 03:42:26;;;;;;;4.72;4.32;;;9.10;48.40;;;;;;20595;6858;117531;-74
2022/09/22 03:44:51;;;;;;;4.57;4.27;;;9.10;48.40;;;;;;20463;6855;284573;-74
2022/09/22 03:47:18;;;;;;;4.80;4.50;;;9.30;48.80;;;;;;20476;6846;308606;-74
2022/09/22 03:49:42;;;;;;;4.47;4.28;;;9.60;47.90;;;;;;20490;6846;313291;-77
2022/09/22 03:52:08;;;;;;;4.20;4.00;;;9.90;47.60;;;;;;20724;6842;117067;-74
2022/09/22 03:54:35;;;;;;;4.50;4.20;;;9.40;48.60;;;;;;20705;6842;118593;-75
2022/09/22 03:57:00;;;;;;;5.20;4.90;;;9.40;48.20;;;;;;20461;6846;277469;-75
2022/09/22 03:59:26;;;;;;;4.50;4.30;;;9.30;48.70;;;;;;20704;6846;118584;-75
2022/09/22 04:01:52;;;;;;;4.37;4.17;;;9.30;48.00;;;;;;20703;6846;117376;-74
2022/09/22 04:04:19;;;;;;;5.32;4.55;;;9.00;48.40;;;;;;20676;6857;117485;-76
2022/09/22 04:06:44;;;;;;;4.60;4.30;;;8.80;48.90;;;;;;20675;6857;117241;-75
2022/09/22 04:09:09;;;;;;;5.67;5.27;;;8.60;49.10;;;;;;20440;6857;291845;-74
2022/09/22 04:11:36;;;;;;;5.27;4.97;;;8.80;49.50;;;;;;20680;6857;117490;-74
2022/09/22 04:14:02;;;;;;;4.93;4.63;;;8.80;49.30;;;;;;20732;6842;117686;-74
2022/09/22 04:16:28;;;;;;;4.67;4.27;;;8.60;49.50;;;;;;20706;6842;118569;-75
2022/09/22 04:18:52;;;;;;;6.12;5.72;;;8.50;49.80;;;;;;20489;6842;280136;-79
2022/09/22 04:21:17;;;;;;;6.10;5.70;;;8.70;49.80;;;;;;20715;6839;117031;-77
2022/09/22 04:23:43;;;;;;;6.20;5.80;;;8.70;49.40;;;;;;20529;6839;309017;-80
2022/09/22 04:26:09;;;;;;;5.65;5.25;;;8.80;49.60;;;;;;20740;6839;117556;-73
2022/09/22 04:28:35;;;;;;;5.27;4.97;;;8.80;49.20;;;;;;20683;6839;118265;-73
2022/09/22 04:31:00;;;;;;;6.65;6.15;;;8.60;49.60;;;;;;20488;6851;314520;-75
2022/09/22 04:33:27;;;;;;;6.63;6.23;;;9.10;49.00;;;;;;20479;6854;331302;-76
2022/09/22 04:35:52;;;;;;;6.43;6.03;;;9.10;49.00;;;;;;20692;6854;125661;-77
2022/09/22 04:38:18;;;;;;;6.27;5.87;;;9.00;48.90;;;;;;20463;6854;341484;-75
2022/09/22 04:40:43;;;;;;;6.57;6.17;;;9.10;49.00;;;;;;20471;6851;336295;-75
2022/09/22 04:43:09;;;;;;;6.03;5.60;;;9.30;48.70;;;;;;20699;6851;117973;-76
2022/09/22 04:45:35;;;;;;;7.40;6.90;;;9.20;49.20;;;;;;20503;6839;336102;-74
2022/09/22 04:48:02;;;;;;;6.77;6.37;;;9.20;48.80;;;;;;20742;6839;118641;-76
2022/09/22 04:50:29;;;;;;;6.70;6.30;;;9.00;48.80;;;;;;20724;6839;117409;-77
2022/09/22 04:52:55;;;;;;;7.47;6.87;;;8.70;49.30;;;;;;20521;6839;307537;-76
2022/09/22 04:55:21;;;;;;;8.20;6.70;;;8.80;49.90;;;;;;20733;6836;117447;-75
2022/09/22 04:57:54;;;;;;;6.80;6.20;;;8.80;49.80;;;;;;20739;6836;116840;-75
2022/09/22 05:00:21;;;;;;;6.53;6.13;;;8.60;50.10;;;;;;20702;6836;117760;-75
2022/09/22 05:02:48;;;;;;;9.50;8.80;;;8.40;50.40;;;;;;20708;6838;117652;-76
2022/09/22 05:05:14;;;;;;;8.77;8.07;;;8.30;50.60;;;;;;20721;6838;118407;-75
2022/09/22 05:07:45;;;;;;;7.20;6.80;;;8.10;50.60;;;;;;20697;6841;117543;-76
2022/09/22 05:10:13;;;;;;;7.05;6.65;;;8.30;51.50;;;;;;20517;6841;336052;-78
2022/09/22 05:12:40;;;;;;;6.90;6.40;;;8.20;51.40;;;;;;20716;6841;117380;-77
2022/09/22 05:15:05;;;;;;;6.40;6.00;;;8.40;51.10;;;;;;20697;6841;117313;-77
2022/09/22 05:17:32;;;;;;;4.37;3.97;;;8.30;51.10;;;;;;20487;6845;277523;-78
2022/09/22 05:19:57;;;;;;;3.67;3.05;;;8.50;50.20;;;;;;20705;6845;116891;-77
2022/09/22 05:22:22;;;;;;;3.43;3.23;;;8.60;49.90;;;;;;20698;6845;121465;-73
2022/09/22 05:24:48;;;;;;;3.33;3.13;;;8.40;50.30;;;;;;20702;6849;117384;-74
2022/09/22 05:27:13;;;;;;;3.60;3.40;;;8.30;50.80;;;;;;20671;6857;117162;-76
2022/09/22 05:29:39;;;;;;;3.20;3.00;;;8.30;50.90;;;;;;20477;6857;307468;-73
2022/09/22 05:32:04;;;;;;;2.85;2.70;;;8.70;50.70;;;;;;20443;6857;294395;-73
2022/09/22 05:34:33;;;;;;;2.40;2.30;;;9.40;50.80;;;;;;20451;6857;314396;-81
2022/09/22 05:36:59;;;;;;;2.70;2.50;;;10.20;47.80;;;;;;20477;6857;307577;-76
2022/09/22 05:39:24;;;;;;;2.30;2.17;;;11.00;45.90;;;;;;20692;6855;117349;-78
2022/09/22 05:41:50;;;;;;;2.80;2.70;;;11.20;46.00;;;;;;20481;6856;339790;-76
2022/09/22 05:44:15;;;;;;;2.80;2.70;;;11.70;44.20;;;;;;20690;6856;118454;-75
2022/09/22 05:46:42;;;;;;;3.00;2.80;;;12.00;44.60;;;;;;20433;6857;337676;-81
2022/09/22 05:49:08;;;;;;;2.83;2.63;;;12.40;43.00;;;;;;20468;6857;307730;-79
2022/09/22 05:51:33;;;;;;;2.80;2.60;;;12.90;41.60;;;;;;20475;6857;279495;-77
2022/09/22 05:53:59;;;;;;;2.60;2.50;;;13.40;40.60;;;;;;20687;6857;120995;-75
2022/09/22 05:56:24;;;;;;;2.63;2.43;;;13.40;41.10;;;;;;20664;6857;141796;-76
2022/09/22 05:58:50;;;;;;;2.70;2.50;;;13.30;41.70;;;;;;20482;6857;278695;-76
2022/09/22 06:01:16;;;;;;;2.90;2.70;;;13.50;40.70;;;;;;20475;6857;309630;-76
2022/09/22 06:03:41;;;;;;;2.70;2.50;;;14.00;39.40;;;;;;20700;6851;117651;-74
2022/09/22 06:06:07;;;;;;;2.25;2.05;;;14.10;39.90;;;;;;20703;6851;122276;-76
2022/09/22 06:08:32;;;;;;;2.92;2.30;;;13.90;40.20;;;;;;20688;6851;123102;-75
2022/09/22 06:10:59;;;;;;;2.73;2.53;;;13.70;41.00;;;;;;20700;6851;120974;-77
2022/09/22 06:13:24;;;;;;;3.25;3.05;;;13.70;41.00;;;;;;20485;6851;341705;-77
2022/09/22 06:15:50;;;;;;;3.23;3.03;;;14.00;39.50;;;;;;20699;6851;117737;-78
2022/09/22 06:18:19;;;;;;;3.17;2.97;;;14.00;39.80;;;;;;20698;6851;121320;-77
2022/09/22 06:20:41;;;;;;;3.10;2.80;;;13.70;40.10;;;;;;20664;6851;118854;-77
2022/09/22 06:23:07;;;;;;;3.70;3.40;;;13.50;40.60;;;;;;20493;6851;309114;-78
2022/09/22 06:25:32;;;;;;;5.70;3.17;;;13.60;40.20;;;;;;20432;6851;308559;-75
2022/09/22 06:27:59;;;;;;;3.30;3.10;;;13.90;39.80;;;;;;20495;6851;309817;-76
2022/09/22 06:30:24;;;;;;;3.13;2.90;;;14.00;39.40;;;;;;20641;6851;118889;-73
2022/09/22 06:32:53;;;;;;;3.20;3.00;;;13.80;39.90;;;;;;20488;6851;280187;-76
2022/09/22 06:35:18;;;;;;;3.30;3.10;;;13.80;39.90;;;;;;20485;6851;278232;-78
2022/09/22 06:37:44;;;;;;;3.20;2.90;;;14.00;39.80;;;;;;20493;6851;287558;-77
2022/09/22 06:40:09;;;;;;;3.37;3.17;;;14.20;39.60;;;;;;20479;6851;336953;-77
2022/09/22 06:42:35;;;;;;;3.03;2.83;;;14.40;39.90;;;;;;20686;6851;120771;-76
2022/09/22 06:45:02;;;;;;;3.23;2.93;;;14.10;40.20;;;;;;20469;6851;297610;-78
2022/09/22 06:47:26;;;;;;;2.80;2.70;;;14.00;40.50;;;;;;20702;6851;117347;-75
2022/09/22 06:49:52;;;;;;;3.20;3.00;;;13.90;40.90;;;;;;20496;6851;279012;-73
2022/09/22 06:52:17;;;;;;;2.67;2.57;;;14.00;40.60;;;;;;20480;6850;308636;-75
2022/09/22 06:54:43;;;;;;;2.60;2.50;;;14.20;40.80;;;;;;20475;6850;307374;-77
2022/09/22 06:57:09;;;;;;;2.50;2.40;;;14.40;40.50;;;;;;20492;6851;283395;-73
2022/09/22 06:59:36;;;;;;;2.93;2.83;;;14.60;40.40;;;;;;20484;6851;308111;-74
2022/09/22 07:02:03;;;;;;;3.00;2.80;;;14.70;40.50;;;;;;20485;6851;278605;-77
2022/09/22 07:04:26;;;;;;;2.47;2.30;;;14.80;40.40;;;;;;20457;6851;308356;-77
2022/09/22 07:06:52;;;;;;;2.60;2.40;;;14.90;40.80;;;;;;20490;6851;338036;-79
2022/09/22 07:09:17;;;;;;;4.27;2.47;;;15.10;40.70;;;;;;20703;6851;117304;-79
2022/09/22 07:11:45;;;;;;;2.53;2.40;;;14.90;41.40;;;;;;20703;6851;117224;-77
2022/09/22 07:14:11;;;;;;;2.30;2.20;;;14.90;42.10;;;;;;20697;6851;117861;-81
2022/09/22 07:16:36;;;;;;;2.43;2.30;;;14.80;41.80;;;;;;20678;6851;121329;-77
2022/09/22 07:19:04;;;;;;;2.93;2.73;;;14.80;42.40;;;;;;20698;6851;120708;-76
2022/09/22 07:21:31;;;;;;;4.17;2.67;;;14.70;42.20;;;;;;20492;6851;307697;-80
2022/09/22 07:23:53;;;;;;;2.97;2.77;;;15.10;41.50;;;;;;20691;6851;117390;-76
2022/09/22 07:26:20;;;;;;;2.58;2.37;;;15.40;41.60;;;;;;20476;6851;341161;-78
2022/09/22 07:28:50;;;;;;;3.97;2.00;;;15.70;41.00;;;;;;20706;6851;117405;-75
2022/09/22 07:31:12;;;;;;;2.45;2.25;;;15.90;41.00;;;;;;20478;6851;311877;-74
2022/09/22 07:33:38;;;;;;;2.90;2.70;;;16.80;39.70;;;;;;20475;6851;278944;-76
2022/09/22 07:36:07;;;;;;;2.87;2.37;;;16.70;39.50;;;;;;20690;6851;121129;-76
2022/09/22 07:38:32;;;;;;;2.10;2.00;;;16.90;39.80;;;;;;20686;6851;123682;-77
2022/09/22 07:40:55;;;;;;;3.80;3.10;;;16.80;40.00;;;;;;20700;6851;120862;-78
2022/09/22 07:43:20;;;;;;;2.50;2.30;;;16.80;40.30;;;;;;20705;6851;117960;-75
2022/09/22 07:45:56;;;;;;;2.27;2.17;;;16.70;40.50;;;;;;20499;6851;278514;-74
2022/09/22 07:48:35;;;;;;;2.70;2.50;;;17.00;39.30;;;;;;20679;6851;117862;-74
2022/09/22 07:51:00;;;;;;;2.80;2.60;;;17.30;39.70;;;;;;20497;6851;308559;-74
2022/09/22 07:53:26;;;;;;;2.80;2.60;;;17.60;39.40;;;;;;20492;6851;294159;-77
2022/09/22 07:55:51;;;;;;;2.60;2.40;;;17.90;39.10;;;;;;20704;6851;119286;-73
2022/09/22 07:58:17;;;;;;;3.37;2.20;;;17.90;38.90;;;;;;20702;6851;117372;-77
2022/09/22 08:00:44;;;;;;;2.53;2.43;;;17.90;39.30;;;;;;20683;6851;118848;-73
2022/09/22 08:03:10;;;;;;;3.15;2.70;;;17.80;39.60;;;;;;20492;6849;280374;-75
2022/09/22 08:05:38;;;;;;;2.20;2.00;;;18.20;40.20;;;;;;20705;6850;117634;-78
2022/09/22 08:08:02;;;;;;;2.47;2.37;;;18.20;39.50;;;;;;20487;6851;308248;-75
2022/09/22 08:10:27;;;;;;;2.30;2.10;;;18.40;38.90;;;;;;20675;6851;117291;-74
2022/09/22 08:12:56;;;;;;;3.30;3.00;;;18.40;39.00;;;;;;20503;6851;328531;-75
2022/09/22 08:15:22;;;;;;;3.10;2.80;;;18.70;38.60;;;;;;20700;6851;117268;-76
2022/09/22 08:17:45;;;;;;;4.10;3.90;;;18.70;38.70;;;;;;20488;6851;279593;-74
2022/09/22 08:20:12;;;;;;;3.17;3.07;;;19.00;38.40;;;;;;20699;6851;117939;-73
2022/09/22 08:22:37;;;;;;;3.78;3.47;;;19.00;38.40;;;;;;20469;6851;337847;-75
2022/09/22 08:25:04;;;;;;;3.60;3.27;;;19.20;37.60;;;;;;20701;6851;118156;-73
2022/09/22 08:27:29;;;;;;;3.70;3.40;;;19.20;37.50;;;;;;20489;6851;338478;-74
2022/09/22 08:29:55;;;;;;;2.67;2.57;;;19.40;36.60;;;;;;20495;6851;278558;-75
2022/09/22 08:32:20;;;;;;;2.50;2.40;;;19.70;36.00;;;;;;20680;6851;119987;-74
2022/09/22 08:34:47;;;;;;;3.15;2.95;;;19.30;36.70;;;;;;20710;6851;118015;-73
2022/09/22 08:37:13;;;;;;;2.78;2.58;;;19.40;36.40;;;;;;20506;6851;278768;-74
2022/09/22 08:39:38;;;;;;;2.77;2.63;;;19.40;36.40;;;;;;20711;6851;117343;-74
2022/09/22 08:42:11;;;;;;;2.72;2.53;;;19.20;37.20;;;;;;20711;6851;120255;-74
2022/09/22 08:44:40;;;;;;;2.40;2.30;;;19.20;37.10;;;;;;20436;6851;308607;-73
2022/09/22 08:47:05;;;;;;;2.67;2.57;;;19.50;35.90;;;;;;20642;6851;117395;-74
2022/09/22 08:52:37;;;;;;;2.70;2.50;;;19.20;37.00;;;;;;20686;6851;120711;-74
2022/09/22 08:55:02;;;;;;;3.00;2.80;;;19.20;37.00;;;;;;20699;6851;118786;-77
2022/09/22 08:57:55;;;;;;;2.60;2.50;;;19.00;37.10;;;;;;20487;6851;341609;-74
2022/09/22 09:00:16;;;;;;;3.20;2.40;;;19.20;36.70;;;;;;20482;6851;328605;-73
2022/09/22 09:02:51;;;;;;;2.97;2.80;;;19.70;36.50;;;;;;20459;6851;278286;-72
2022/09/22 09:05:41;;;;;;;3.50;3.30;;;20.20;36.10;;;;;;20708;6851;68376;-73
2022/09/22 09:08:47;;;;;;;2.50;2.30;;;20.30;34.50;;;;;;20473;6851;314474;-74
2022/09/22 09:11:46;;;;;;;2.00;1.90;;;20.30;34.50;;;;;;20719;6851;71068;-73
2022/09/22 09:14:35;;;;;;;2.60;2.40;;;20.10;35.00;;;;;;19480;7194;308605;-77
2022/09/22 09:17:02;;;;;;;2.63;2.50;;;20.30;35.50;;;;;;20385;6866;278610;-74
2022/09/22 09:19:33;;;;;;;2.20;2.10;;;20.60;34.50;;;;;;20433;6865;315709;-75
2022/09/22 09:22:00;;;;;;;2.30;1.83;;;20.80;34.10;;;;;;20658;6866;120021;-76
2022/09/22 09:24:31;;;;;;;2.23;2.10;;;20.60;34.30;;;;;;20667;6855;117617;-73
2022/09/22 09:26:59;;;;;;;1.90;1.80;;;20.40;35.40;;;;;;20690;6855;117905;-78
2022/09/22 09:29:25;;;;;;;2.20;2.10;;;20.10;35.40;;;;;;20476;6855;308134;-74
2022/09/22 09:31:51;;;;;;;1.50;1.40;;;20.40;34.40;;;;;;20685;6851;117270;-77
2022/09/22 09:34:16;;;;;;;1.80;1.70;;;20.40;34.60;;;;;;20481;6851;303791;-74
2022/09/22 09:36:41;;;;;;;1.80;1.70;;;20.60;33.80;;;;;;20673;6851;117909;-73
2022/09/22 09:39:14;;;;;;;1.90;1.80;;;20.60;34.30;;;;;;20473;6851;307763;-78
2022/09/22 09:41:40;;;;;;;2.00;1.80;;;20.80;33.60;;;;;;20688;6851;117603;-77
2022/09/22 09:44:05;;;;;;;1.60;1.50;;;20.70;34.00;;;;;;20696;6851;117225;-77
2022/09/22 09:46:33;;;;;;;2.10;2.00;;;20.60;34.30;;;;;;20461;6851;277652;-73
2022/09/22 09:49:06;;;;;;;2.10;2.00;;;20.60;34.00;;;;;;20432;6851;309100;-78
2022/09/22 09:51:34;;;;;;;2.00;1.90;;;21.00;33.30;;;;;;20486;6851;307316;-76
2022/09/22 09:54:00;;;;;;;2.00;1.90;;;21.20;33.40;;;;;;20697;6851;117496;-74
2022/09/22 09:56:26;;;;;;;3.77;2.30;;;20.80;34.00;;;;;;20681;6851;127194;-74
2022/09/22 10:01:47;;;;;;;1.93;1.83;;;20.50;34.10;;;;;;20492;6851;300709;-76
2022/09/22 10:04:16;;;;;;;2.43;1.90;;;20.60;33.50;;;;;;20696;6851;123523;-73
2022/09/22 10:06:41;;;;;;;2.10;2.00;;;20.50;34.00;;;;;;20426;6851;279946;-76
2022/09/22 10:09:08;;;;;;;2.50;2.03;;;20.50;34.80;;;;;;20706;6851;117357;-76
2022/09/22 10:11:33;;;;;;;1.70;1.60;;;20.50;34.60;;;;;;20705;6851;117220;-72
2022/09/22 10:13:59;;;;;;;1.83;1.73;;;20.30;35.00;;;;;;20710;6851;123519;-74
2022/09/22 10:16:25;;;;;;;1.97;1.87;;;20.40;34.40;;;;;;20475;6851;308092;-74
2022/09/22 10:18:57;;;;;;;2.07;1.97;;;20.40;34.40;;;;;;20703;6851;117460;-76
2022/09/22 10:21:23;;;;;;;2.40;2.20;;;20.40;34.50;;;;;;20496;6851;279074;-78
2022/09/22 10:23:51;;;;;;;2.20;2.10;;;20.60;34.10;;;;;;20490;6851;309425;-75
2022/09/22 10:26:17;;;;;;;2.30;2.20;;;20.80;33.80;;;;;;20492;6849;279057;-76
2022/09/22 10:28:42;;;;;;;1.90;1.80;;;21.00;33.10;;;;;;20464;6850;308458;-75
2022/09/22 10:31:23;;;;;;;2.40;2.30;;;21.10;32.90;;;;;;20700;6851;118061;-76
2022/09/22 10:33:53;;;;;;;2.93;2.40;;;21.00;33.40;;;;;;20696;6851;116832;-77
2022/09/22 10:36:19;;;;;;;1.52;1.45;;;20.80;34.00;;;;;;20488;6851;328697;-77
2022/09/22 10:38:44;;;;;;;2.00;1.90;;;20.90;34.10;;;;;;20700;6851;117472;-76
2022/09/22 10:41:13;;;;;;;3.85;2.10;;;21.00;34.30;;;;;;20489;6851;337571;-76
2022/09/22 10:43:39;;;;;;;1.93;1.80;;;21.10;34.20;;;;;;20688;6851;117329;-77
2022/09/22 10:46:11;;;;;;;2.00;1.90;;;21.10;33.50;;;;;;20483;6851;305770;-76
2022/09/22 10:48:45;;;;;;;2.15;2.05;;;21.10;33.60;;;;;;19858;6851;312281;-76
2022/09/22 10:51:17;;;;;;;1.70;1.60;;;21.40;33.40;;;;;;20690;6851;117358;-74
2022/09/22 10:53:46;;;;;;;1.73;1.62;;;21.30;33.70;;;;;;20478;6851;314567;-75
2022/09/22 10:56:35;;;;;;;1.50;1.40;;;21.40;33.30;;;;;;20492;6851;312207;-75
2022/09/22 10:59:33;;;;;;;2.03;1.77;;;21.60;31.40;;;;;;20670;6851;120520;-78
2022/09/22 11:02:12;;;;;;;1.73;1.27;;;21.50;32.10;;;;;;20466;6851;308688;-77
2022/09/22 11:04:40;;;;;;;1.23;1.17;;;21.50;31.70;;;;;;20045;6851;119441;-74
2022/09/22 11:13:33;;;;;;;1.03;0.77;;;20.90;31.90;;;;;;20708;6851;117629;-76
2022/09/22 11:16:10;;;;;;;0.90;0.90;;;20.80;32.50;;;;;;19969;6851;122264;-76
2022/09/22 11:18:42;;;;;;;0.80;0.80;;;20.60;31.90;;;;;;20644;6851;119371;-74
2022/09/22 11:21:20;;;;;;;0.87;0.70;;;20.60;31.80;;;;;;20650;6851;117368;-75
2022/09/22 11:23:56;;;;;;;0.70;0.70;;;20.60;31.80;;;;;;19864;6851;278883;-76
2022/09/22 11:26:45;;;;;;;1.60;0.80;;;20.90;29.80;;;;;;20443;6851;294456;-74
2022/09/22 11:29:33;;;;;;;0.90;0.90;;;21.30;29.40;;;;;;20457;6851;284500;-76
2022/09/22 11:32:18;;;;;;;0.73;0.73;;;21.60;29.00;;;;;;20682;6851;117337;-75
2022/09/22 11:35:04;;;;;;;0.90;0.90;;;21.60;29.60;;;;;;20675;6851;117867;-75
2022/09/22 11:37:33;;;;;;;1.10;0.98;;;21.40;30.00;;;;;;20501;6849;278191;-78
2022/09/22 11:40:18;;;;;;;1.10;0.98;;;21.40;30.00;;;;;;20484;6850;278724;-78
2022/09/22 11:42:54;;;;;;;1.67;0.70;;;21.70;30.00;;;;;;20445;6851;308264;-78
2022/09/22 11:45:48;;;;;;;1.70;0.80;;;22.00;29.90;;;;;;20571;6851;120082;-76
2022/09/22 11:48:34;;;;;;;1.27;0.80;;;21.90;30.00;;;;;;20690;6851;117258;-79
2022/09/22 11:51:30;;;;;;;0.53;0.50;;;21.70;30.20;;;;;;20705;6851;117240;-75
2022/09/22 11:54:22;;;;;;;0.77;0.77;;;21.40;30.40;;;;;;20704;6851;117603;-75
2022/09/22 11:57:00;;;;;;;0.87;0.87;;;20.90;30.20;;;;;;19609;7210;119212;-77
2022/09/22 11:59:52;;;;;;;0.90;0.90;;;20.90;30.20;;;;;;20230;6866;117013;-74
2022/09/22 12:02:31;;;;;;;1.00;1.00;;;20.80;30.40;;;;;;20681;6855;121421;-74
2022/09/22 12:04:56;;;;;;;2.40;1.00;;;20.60;30.50;;;;;;20460;6855;308868;-74
2022/09/22 12:07:24;;;;;;;0.80;0.80;;;20.90;30.40;;;;;;20674;6855;117063;-74
2022/09/22 12:09:50;;;;;;;0.83;0.83;;;20.90;30.40;;;;;;20669;6855;118242;-74
2022/09/22 12:12:16;;;;;;;1.40;0.80;;;20.90;29.90;;;;;;20462;6855;337082;-74
2022/09/22 12:14:43;;;;;;;0.93;0.90;;;20.90;29.90;;;;;;20658;6855;118592;-75
2022/09/22 12:17:09;;;;;;;0.80;0.80;;;20.90;29.90;;;;;;20689;6855;117618;-77
2022/09/22 12:19:52;;;;;;;0.80;0.80;;;20.90;30.10;;;;;;20507;6855;116959;-76
2022/09/22 12:22:17;;;;;;;1.70;1.20;;;20.80;30.50;;;;;;20673;6851;118733;-74
2022/09/22 12:24:47;;;;;;;1.67;0.80;;;20.70;30.60;;;;;;20662;6851;118326;-73
2022/09/22 12:27:26;;;;;;;0.83;0.83;;;20.60;30.70;;;;;;20487;6851;307760;-74
2022/09/22 12:29:55;;;;;;;1.02;0.85;;;21.20;29.50;;;;;;20481;6851;341407;-74
2022/09/22 12:32:23;;;;;;;1.30;1.23;;;21.20;29.30;;;;;;20680;6851;117861;-75
2022/09/22 12:34:48;;;;;;;1.33;1.10;;;21.20;29.50;;;;;;20693;6851;118064;-76
2022/09/22 12:37:18;;;;;;;1.80;1.10;;;21.10;29.40;;;;;;20493;6851;337745;-78
2022/09/22 12:39:43;;;;;;;1.13;1.07;;;21.10;28.80;;;;;;20327;6851;117892;-75
2022/09/22 12:42:19;;;;;;;1.00;1.00;;;21.10;29.20;;;;;;20687;6851;118077;-75
2022/09/22 12:44:52;;;;;;;1.00;1.00;;;20.90;29.40;;;;;;20280;6851;117765;-76
2022/09/22 12:47:17;;;;;;;1.17;0.80;;;20.70;29.40;;;;;;20366;6851;309418;-75
2022/09/22 12:49:54;;;;;;;1.15;1.00;;;21.00;29.30;;;;;;20465;6850;308222;-75
2022/09/22 12:52:41;;;;;;;1.00;1.00;;;21.00;29.20;;;;;;20671;6850;117583;-76
2022/09/22 12:55:20;;;;;;;1.30;1.10;;;21.00;29.20;;;;;;20546;6851;117813;-75
2022/09/22 12:57:51;;;;;;;1.10;1.10;;;20.80;29.10;;;;;;20664;6851;117578;-76
2022/09/22 13:00:22;;;;;;;1.27;1.17;;;20.60;29.20;;;;;;20709;6851;117055;-77
2022/09/22 13:02:44;;;;;;;1.40;1.40;;;20.40;29.70;;;;;;20661;6851;120494;-76
2022/09/22 13:05:11;;;;;;;4.00;3.77;;;20.30;29.80;;;;;;20703;6851;117607;-76
2022/09/22 13:07:38;;;;;;;2.57;1.90;;;20.20;29.90;;;;;;20690;6851;117783;-75
2022/09/22 13:10:26;;;;;;;1.20;1.20;;;20.20;30.00;;;;;;20697;6851;117587;-76
2022/09/22 13:13:05;;;;;;;0.80;0.80;;;20.20;30.40;;;;;;20688;6851;117448;-76
2022/09/22 13:15:55;;;;;;;0.98;0.90;;;20.10;30.30;;;;;;20489;6851;311760;-76
2022/09/22 13:18:30;;;;;;;1.00;1.00;;;20.40;29.90;;;;;;20449;6851;278579;-76
2022/09/22 13:20:57;;;;;;;1.27;0.80;;;20.80;29.40;;;;;;20488;6851;117634;-75
2022/09/22 13:23:23;;;;;;;1.00;1.00;;;20.80;29.20;;;;;;20697;6851;117451;-76